Time;durP1;ratioP1;P1;durP2;ratioP2;P2;SDS_P1;SDS_P2;PMS_P1;PMS_P2;Temp;Humidity;BMP_temperature;BMP_pressure;BME280_temperature;BME280_humidity;BME280_pressure;Samples;Min_cycle;Max_cycle;Signal;HPM_P1;HPM_P2
2021/11/15 00:02:01;;;;;;;21.43;11.87;;;18.40;58.00;;;;;;5060679;28;20473;-83
2021/11/15 00:04:29;;;;;;;17.00;10.63;;;18.40;58.10;;;;;;5065027;28;20554;-82
2021/11/15 00:06:58;;;;;;;19.63;11.73;;;18.40;58.10;;;;;;5065110;28;20446;-83
2021/11/15 00:09:25;;;;;;;23.13;12.33;;;18.40;58.10;;;;;;5062581;28;20481;-82
2021/11/15 00:11:54;;;;;;;20.13;11.10;;;18.40;58.00;;;;;;5058919;28;20929;-82
2021/11/15 00:14:22;;;;;;;18.73;11.10;;;18.30;57.90;;;;;;5058478;28;20451;-82
2021/11/15 00:16:51;;;;;;;19.13;12.13;;;18.30;58.10;;;;;;5058544;28;20447;-83
2021/11/15 00:19:20;;;;;;;19.17;11.00;;;18.30;58.00;;;;;;5061607;28;20458;-84
2021/11/15 00:21:48;;;;;;;19.67;12.20;;;18.30;58.00;;;;;;5064035;28;20450;-84
2021/11/15 00:24:16;;;;;;;15.90;10.07;;;18.30;58.10;;;;;;5061132;28;20479;-84
2021/11/15 00:26:44;;;;;;;18.73;11.17;;;18.30;58.40;;;;;;5060723;28;20439;-84
2021/11/15 00:29:12;;;;;;;15.80;9.90;;;18.30;58.10;;;;;;5061699;28;20470;-84
2021/11/15 00:31:40;;;;;;;21.17;11.87;;;18.30;58.00;;;;;;5062119;28;20724;-84
2021/11/15 00:34:09;;;;;;;20.87;12.10;;;18.30;58.10;;;;;;5060330;28;20469;-84
2021/11/15 00:36:38;;;;;;;20.50;11.53;;;18.30;58.00;;;;;;5059832;28;20449;-84
2021/11/15 00:39:09;;;;;;;17.70;11.23;;;18.30;58.00;;;;;;5062111;28;20447;-84
2021/11/15 00:41:37;;;;;;;18.63;10.50;;;18.30;58.10;;;;;;5069178;28;20443;-83
2021/11/15 00:44:05;;;;;;;18.73;11.47;;;18.30;58.00;;;;;;5069161;28;20474;-83
2021/11/15 00:46:33;;;;;;;19.30;10.93;;;18.30;58.00;;;;;;5069642;28;20434;-83
2021/11/15 00:49:01;;;;;;;19.57;11.37;;;18.30;58.00;;;;;;5067786;28;20474;-83
2021/11/15 00:51:30;;;;;;;18.63;11.50;;;18.30;58.10;;;;;;5067864;28;20438;-83
2021/11/15 00:53:59;;;;;;;18.10;10.80;;;18.30;58.00;;;;;;5067437;28;20470;-83
2021/11/15 00:56:27;;;;;;;19.07;11.00;;;18.30;58.00;;;;;;5067713;28;20445;-83
2021/11/15 00:58:56;;;;;;;18.10;10.60;;;18.30;58.00;;;;;;5067580;28;20438;-83
2021/11/15 01:01:24;;;;;;;20.23;11.30;;;18.20;57.90;;;;;;5066900;28;20445;-83
2021/11/15 01:03:52;;;;;;;20.53;11.40;;;18.30;58.00;;;;;;5067096;28;20463;-83
2021/11/15 01:06:21;;;;;;;18.70;11.37;;;18.30;58.00;;;;;;5066876;28;20427;-83
2021/11/15 01:08:48;;;;;;;20.00;10.77;;;18.30;58.00;;;;;;5067770;28;20474;-83
2021/11/15 01:11:18;;;;;;;16.63;10.93;;;18.30;58.00;;;;;;5067600;28;20443;-82
2021/11/15 01:13:46;;;;;;;18.13;10.90;;;18.30;58.00;;;;;;5057541;28;20477;-82
2021/11/15 01:16:14;;;;;;;17.20;10.30;;;18.30;58.00;;;;;;5057683;28;20485;-82
2021/11/15 01:18:43;;;;;;;20.70;11.10;;;18.30;58.00;;;;;;5057421;28;20484;-82
2021/11/15 01:21:12;;;;;;;19.73;12.03;;;18.30;58.00;;;;;;5057811;28;20481;-83
2021/11/15 01:23:40;;;;;;;17.83;10.83;;;18.20;58.00;;;;;;5066859;28;20469;-83
2021/11/15 01:26:08;;;;;;;20.90;11.97;;;18.30;58.00;;;;;;5067105;28;20434;-83
2021/11/15 01:28:38;;;;;;;17.40;10.97;;;18.30;58.00;;;;;;5063662;28;20470;-82
2021/11/15 01:31:06;;;;;;;20.30;11.90;;;18.20;57.90;;;;;;5068422;28;20433;-83
2021/11/15 01:33:34;;;;;;;18.60;11.30;;;18.20;57.90;;;;;;5066670;28;20474;-82
2021/11/15 01:36:02;;;;;;;20.90;11.73;;;18.20;57.90;;;;;;5058705;28;20479;-82
2021/11/15 01:38:30;;;;;;;18.40;10.63;;;18.20;58.00;;;;;;5057487;28;20458;-82
2021/11/15 01:40:58;;;;;;;19.43;10.90;;;18.20;57.90;;;;;;5066569;28;20427;-83
2021/11/15 01:43:26;;;;;;;18.10;11.03;;;18.20;58.00;;;;;;5066708;28;20466;-82
2021/11/15 01:45:58;;;;;;;21.40;11.70;;;18.20;57.90;;;;;;5067356;28;20462;-82
2021/11/15 01:48:26;;;;;;;19.83;11.70;;;18.20;58.00;;;;;;5067144;28;20581;-82
2021/11/15 01:50:54;;;;;;;19.77;11.27;;;18.20;58.10;;;;;;5067129;28;20427;-82
2021/11/15 01:53:22;;;;;;;20.43;12.10;;;18.20;58.10;;;;;;5066834;28;20528;-83
2021/11/15 01:55:50;;;;;;;19.90;11.87;;;18.20;57.90;;;;;;5067253;28;20481;-83
2021/11/15 01:58:18;;;;;;;20.07;11.90;;;18.20;58.00;;;;;;5067014;28;20438;-83
2021/11/15 02:00:49;;;;;;;17.63;11.60;;;18.20;58.00;;;;;;5066965;28;20451;-83
2021/11/15 02:03:19;;;;;;;20.90;12.23;;;18.10;58.00;;;;;;5066397;28;20443;-84
2021/11/15 02:05:47;;;;;;;18.13;11.10;;;18.20;58.20;;;;;;5065262;28;20454;-84
2021/11/15 02:08:15;;;;;;;18.70;11.80;;;18.20;58.00;;;;;;5066188;28;20430;-83
2021/11/15 02:10:44;;;;;;;20.60;12.27;;;18.20;58.00;;;;;;5065812;28;20461;-83
2021/11/15 02:13:13;;;;;;;19.30;11.67;;;18.20;58.00;;;;;;5067884;28;20462;-85
2021/11/15 02:15:42;;;;;;;22.10;11.00;;;18.10;57.90;;;;;;5067375;28;20457;-84
2021/11/15 02:18:10;;;;;;;19.17;11.97;;;18.20;58.00;;;;;;5067553;28;20509;-84
2021/11/15 02:20:47;;;;;;;20.70;12.70;;;18.20;58.10;;;;;;5067471;28;20487;-84
2021/11/15 02:23:15;;;;;;;20.40;12.17;;;18.20;57.90;;;;;;5069938;28;20461;-84
2021/11/15 02:25:44;;;;;;;18.00;11.43;;;18.20;57.90;;;;;;5061858;28;20450;-83
2021/11/15 02:28:11;;;;;;;19.03;11.73;;;18.10;57.80;;;;;;5061169;28;20446;-83
2021/11/15 02:30:40;;;;;;;21.10;11.67;;;18.20;57.90;;;;;;5060919;28;20477;-83
2021/11/15 02:33:09;;;;;;;17.73;11.80;;;18.10;57.80;;;;;;5061007;28;20462;-82
2021/11/15 02:35:38;;;;;;;21.87;11.90;;;18.10;57.90;;;;;;5066686;28;20426;-83
2021/11/15 02:38:07;;;;;;;21.80;12.53;;;18.10;57.90;;;;;;5069751;28;20446;-83
2021/11/15 02:40:35;;;;;;;23.70;12.30;;;18.10;57.90;;;;;;5069228;28;20446;-83
2021/11/15 02:43:03;;;;;;;22.13;12.13;;;18.10;57.80;;;;;;5062833;28;20981;-83
2021/11/15 02:45:31;;;;;;;20.63;11.70;;;18.10;58.00;;;;;;5061521;28;20465;-83
2021/11/15 02:47:59;;;;;;;18.57;12.13;;;18.10;57.90;;;;;;5061135;28;20434;-84
2021/11/15 02:50:29;;;;;;;22.33;12.00;;;18.10;57.80;;;;;;5060864;28;20919;-83
2021/11/15 02:52:58;;;;;;;18.87;11.63;;;18.10;57.90;;;;;;5068716;28;20446;-83
2021/11/15 02:55:28;;;;;;;20.13;11.37;;;18.10;57.90;;;;;;5065200;28;20453;-84
2021/11/15 02:57:57;;;;;;;18.60;11.97;;;18.10;57.80;;;;;;5068699;28;20423;-84
2021/11/15 03:00:26;;;;;;;19.90;11.17;;;18.10;57.80;;;;;;5066869;28;20458;-83
2021/11/15 03:02:56;;;;;;;19.70;12.27;;;18.00;57.80;;;;;;5068368;28;20453;-83
2021/11/15 03:05:25;;;;;;;21.30;11.87;;;18.00;57.80;;;;;;5061493;28;20458;-83
2021/11/15 03:07:53;;;;;;;19.87;11.93;;;18.00;57.90;;;;;;5065937;28;20519;-83
2021/11/15 03:10:22;;;;;;;18.30;10.90;;;18.00;57.90;;;;;;5058622;28;20496;-83
2021/11/15 03:12:51;;;;;;;20.30;11.83;;;18.00;57.80;;;;;;5059682;28;20473;-83
2021/11/15 03:15:24;;;;;;;19.93;11.30;;;18.00;57.80;;;;;;5062007;28;20501;-84
2021/11/15 03:17:54;;;;;;;21.53;11.40;;;18.10;57.90;;;;;;5067404;28;20438;-84
2021/11/15 03:20:22;;;;;;;21.60;11.77;;;18.00;57.90;;;;;;5069338;28;20462;-83
2021/11/15 03:22:50;;;;;;;18.27;11.40;;;18.00;57.80;;;;;;5062675;28;20433;-84
2021/11/15 03:25:24;;;;;;;18.13;11.70;;;18.00;57.80;;;;;;5062336;28;20514;-84
2021/11/15 03:27:53;;;;;;;21.00;11.87;;;18.00;57.90;;;;;;5066205;28;20449;-84
2021/11/15 03:30:22;;;;;;;17.10;10.70;;;18.00;57.80;;;;;;5068884;28;20467;-83
2021/11/15 03:32:51;;;;;;;17.53;10.70;;;18.00;57.80;;;;;;5064621;28;20465;-83
2021/11/15 03:35:19;;;;;;;16.77;10.80;;;18.00;57.80;;;;;;5059420;28;20969;-83
2021/11/15 03:37:47;;;;;;;20.83;11.90;;;18.00;57.90;;;;;;5059204;28;20458;-82
2021/11/15 03:40:20;;;;;;;21.17;11.23;;;18.00;57.80;;;;;;5059411;28;20466;-82
2021/11/15 03:42:48;;;;;;;17.67;10.93;;;18.00;57.90;;;;;;5059324;28;20433;-83
2021/11/15 03:45:18;;;;;;;21.73;12.60;;;18.00;57.90;;;;;;5059569;28;20720;-82
2021/11/15 03:47:46;;;;;;;19.63;11.50;;;18.00;57.90;;;;;;5059301;28;20447;-82
2021/11/15 03:50:14;;;;;;;17.60;10.47;;;18.00;57.90;;;;;;5062572;28;20477;-83
2021/11/15 03:52:43;;;;;;;18.40;10.57;;;18.00;57.90;;;;;;5068490;28;20504;-83
2021/11/15 03:55:13;;;;;;;19.43;11.90;;;18.00;57.90;;;;;;5067523;28;20426;-84
2021/11/15 03:57:40;;;;;;;19.43;11.63;;;18.00;58.00;;;;;;5067783;28;20438;-83
2021/11/15 04:00:10;;;;;;;17.20;10.10;;;18.00;57.90;;;;;;5067650;28;20450;-84
2021/11/15 04:02:40;;;;;;;15.87;10.40;;;18.00;57.90;;;;;;5068581;28;20494;-84
2021/11/15 04:05:11;;;;;;;19.40;10.97;;;18.00;57.90;;;;;;5067658;28;20442;-84
2021/11/15 04:07:42;;;;;;;19.80;11.43;;;18.00;58.00;;;;;;5068062;28;20434;-83
2021/11/15 04:10:11;;;;;;;20.77;12.23;;;18.00;57.90;;;;;;5068188;28;20502;-83
2021/11/15 04:12:39;;;;;;;21.57;11.50;;;18.00;57.90;;;;;;5068170;28;20474;-82
2021/11/15 04:15:08;;;;;;;19.30;11.50;;;18.00;57.90;;;;;;5067406;28;20489;-83
2021/11/15 04:17:36;;;;;;;17.63;11.30;;;18.00;57.90;;;;;;5067017;28;20454;-83
2021/11/15 04:20:07;;;;;;;16.60;11.20;;;17.90;57.90;;;;;;5067783;28;20419;-83
2021/11/15 04:22:36;;;;;;;17.90;11.27;;;17.90;57.90;;;;;;5066763;28;20496;-83
2021/11/15 04:25:04;;;;;;;19.50;11.57;;;18.00;57.80;;;;;;5067253;28;20446;-84
2021/11/15 04:27:32;;;;;;;18.20;10.97;;;18.00;58.00;;;;;;5067354;28;20423;-84
2021/11/15 04:30:04;;;;;;;20.90;11.77;;;17.90;57.80;;;;;;5066883;28;20470;-83
2021/11/15 04:32:32;;;;;;;18.70;11.07;;;17.90;57.90;;;;;;5066734;28;20426;-83
2021/11/15 04:35:01;;;;;;;16.97;11.00;;;17.90;57.80;;;;;;5067243;28;20463;-83
2021/11/15 04:37:30;;;;;;;16.30;10.10;;;17.90;57.90;;;;;;5068083;28;20446;-83
2021/11/15 04:39:58;;;;;;;20.13;11.13;;;17.90;57.90;;;;;;5066984;28;20437;-83
2021/11/15 04:42:26;;;;;;;19.60;11.33;;;17.90;57.90;;;;;;5058119;28;20466;-83
2021/11/15 04:44:54;;;;;;;15.70;10.63;;;17.80;57.80;;;;;;5057491;28;20470;-83
2021/11/15 04:47:22;;;;;;;17.40;10.83;;;17.90;58.00;;;;;;5056471;28;20466;-83
2021/11/15 04:49:50;;;;;;;19.30;11.10;;;17.80;57.80;;;;;;5058486;28;20490;-84
2021/11/15 04:52:18;;;;;;;19.60;10.83;;;17.90;57.90;;;;;;5060440;28;20469;-84
2021/11/15 04:54:47;;;;;;;19.00;11.57;;;17.90;57.80;;;;;;5060436;28;20486;-83
2021/11/15 04:57:17;;;;;;;20.00;10.93;;;17.90;57.80;;;;;;5060573;28;20480;-84
2021/11/15 04:59:45;;;;;;;17.93;11.33;;;17.90;57.80;;;;;;5062103;28;20458;-85
2021/11/15 05:02:14;;;;;;;19.57;11.60;;;17.90;57.70;;;;;;5062734;28;20459;-83
2021/11/15 05:04:43;;;;;;;18.77;10.73;;;17.80;57.80;;;;;;5060743;28;20451;-84
2021/11/15 05:07:11;;;;;;;17.27;10.37;;;17.90;57.80;;;;;;5053899;28;20517;-82
2021/11/15 05:09:39;;;;;;;20.67;11.40;;;17.80;57.80;;;;;;5065319;28;20949;-83
2021/11/15 05:12:14;;;;;;;19.93;11.73;;;17.80;57.80;;;;;;5066111;28;20453;-83
2021/11/15 05:14:42;;;;;;;18.23;10.07;;;17.80;57.80;;;;;;5064013;28;20455;-83
2021/11/15 05:17:10;;;;;;;18.73;10.80;;;17.80;57.80;;;;;;5065756;28;20438;-83
2021/11/15 05:19:38;;;;;;;19.47;10.23;;;17.80;57.80;;;;;;5065895;28;20442;-83
2021/11/15 05:22:07;;;;;;;17.70;10.30;;;17.80;57.80;;;;;;5066083;28;20435;-83
2021/11/15 05:24:34;;;;;;;20.10;9.90;;;17.80;57.80;;;;;;5066059;28;20443;-83
2021/11/15 05:27:03;;;;;;;16.60;10.30;;;17.80;58.30;;;;;;5066839;28;20465;-83
2021/11/15 05:29:32;;;;;;;17.43;10.60;;;17.80;57.80;;;;;;5066369;28;20434;-83
2021/11/15 05:32:00;;;;;;;18.20;9.70;;;17.70;57.70;;;;;;5065965;28;20496;-83
2021/11/15 05:34:28;;;;;;;15.70;9.40;;;17.80;57.90;;;;;;5067291;28;20446;-83
2021/11/15 05:36:56;;;;;;;18.90;10.90;;;17.80;57.80;;;;;;5066364;28;20431;-83
2021/11/15 05:39:24;;;;;;;18.33;10.77;;;17.70;57.60;;;;;;5057117;28;20518;-82
2021/11/15 05:41:53;;;;;;;18.90;10.73;;;17.70;57.70;;;;;;5056654;28;20473;-82
2021/11/15 05:44:20;;;;;;;17.20;10.03;;;17.80;57.80;;;;;;5056680;28;20489;-82
2021/11/15 05:46:50;;;;;;;18.70;10.53;;;17.70;57.70;;;;;;5056782;28;20443;-82
2021/11/15 05:49:18;;;;;;;19.33;11.10;;;17.70;57.70;;;;;;5056908;28;20465;-82
2021/11/15 05:51:46;;;;;;;19.43;10.87;;;17.70;57.70;;;;;;5056133;28;21023;-82
2021/11/15 05:54:14;;;;;;;20.80;11.03;;;17.70;57.70;;;;;;5056990;28;20498;-82
2021/11/15 05:56:43;;;;;;;16.00;9.87;;;17.70;57.60;;;;;;5056453;28;20442;-82
2021/11/15 05:59:11;;;;;;;17.70;10.43;;;17.70;57.70;;;;;;5060946;28;20438;-82
2021/11/15 06:01:39;;;;;;;18.53;10.67;;;17.70;57.70;;;;;;5060150;28;20442;-82
2021/11/15 06:04:09;;;;;;;19.43;10.87;;;17.70;57.80;;;;;;5060630;28;20458;-83
2021/11/15 06:06:37;;;;;;;20.73;10.80;;;17.70;57.70;;;;;;5059991;28;20442;-82
2021/11/15 06:09:05;;;;;;;19.20;10.83;;;17.70;57.70;;;;;;5062121;28;20476;-83
2021/11/15 06:11:33;;;;;;;19.83;10.33;;;17.70;57.70;;;;;;5069785;28;20470;-83
2021/11/15 06:14:01;;;;;;;18.97;11.00;;;17.60;57.70;;;;;;5068934;28;20462;-83
2021/11/15 06:16:31;;;;;;;18.90;10.00;;;17.60;57.60;;;;;;5069231;28;20435;-83
2021/11/15 06:18:59;;;;;;;22.30;11.67;;;17.60;57.50;;;;;;5068987;28;20450;-83
2021/11/15 06:21:28;;;;;;;19.87;11.30;;;17.60;57.60;;;;;;5069196;28;20449;-83
2021/11/15 06:23:56;;;;;;;20.93;10.70;;;17.60;57.60;;;;;;5067294;28;20458;-84
2021/11/15 06:26:24;;;;;;;19.60;11.50;;;17.60;57.60;;;;;;5064145;28;20473;-83
2021/11/15 06:28:52;;;;;;;16.93;10.23;;;17.60;57.70;;;;;;5065368;28;20446;-84
2021/11/15 06:31:20;;;;;;;19.40;11.10;;;17.60;57.70;;;;;;5064120;28;20473;-84
2021/11/15 06:33:49;;;;;;;19.80;11.10;;;17.60;57.60;;;;;;5063009;28;20516;-84
2021/11/15 06:36:18;;;;;;;18.50;10.80;;;17.60;57.70;;;;;;5067362;28;20453;-83
2021/11/15 06:38:47;;;;;;;21.90;11.97;;;17.60;57.60;;;;;;5068083;28;20443;-83
2021/11/15 06:41:15;;;;;;;23.07;10.43;;;17.60;57.60;;;;;;5067833;28;20453;-83
2021/11/15 06:43:43;;;;;;;18.60;11.50;;;17.60;57.50;;;;;;5067782;28;20466;-83
2021/11/15 06:46:11;;;;;;;23.67;11.23;;;17.60;57.70;;;;;;5068201;28;20484;-83
2021/11/15 06:48:41;;;;;;;18.70;11.03;;;17.60;57.70;;;;;;5067598;28;20449;-83
2021/11/15 06:51:29;;;;;;;22.10;12.40;;;17.60;57.70;;;;;;5067127;28;20526;-83
2021/11/15 06:53:59;;;;;;;22.00;11.20;;;17.60;57.70;;;;;;5067689;28;20493;-83
2021/11/15 06:56:27;;;;;;;21.27;10.90;;;17.60;57.60;;;;;;5067339;28;20442;-83
2021/11/15 06:58:55;;;;;;;24.63;12.03;;;17.60;57.60;;;;;;5068356;28;20451;-83
2021/11/15 07:01:23;;;;;;;21.37;12.10;;;17.60;57.70;;;;;;5067474;28;20457;-84
2021/11/15 07:03:51;;;;;;;18.20;10.97;;;17.60;57.70;;;;;;5062853;28;20477;-84
2021/11/15 07:06:20;;;;;;;20.30;11.00;;;17.60;57.60;;;;;;5062954;28;20446;-83
2021/11/15 07:08:49;;;;;;;21.13;11.50;;;17.60;57.70;;;;;;5059734;28;20987;-83
2021/11/15 07:11:18;;;;;;;20.50;11.23;;;17.60;57.70;;;;;;5063680;28;20474;-83
2021/11/15 07:13:46;;;;;;;19.63;10.97;;;17.60;57.70;;;;;;5062720;28;20500;-84
2021/11/15 07:16:14;;;;;;;19.90;11.10;;;17.60;57.70;;;;;;5067128;28;20458;-83
2021/11/15 07:18:42;;;;;;;21.07;11.30;;;17.60;57.60;;;;;;5067535;28;20406;-83
2021/11/15 07:21:10;;;;;;;19.47;11.60;;;17.60;57.60;;;;;;5066523;28;20486;-83
2021/11/15 07:23:39;;;;;;;21.27;11.90;;;17.60;57.70;;;;;;5066338;28;20493;-83
2021/11/15 07:26:06;;;;;;;19.03;10.40;;;17.60;57.70;;;;;;5065983;28;20450;-83
2021/11/15 07:28:36;;;;;;;20.13;10.90;;;17.50;57.50;;;;;;5067591;28;20485;-83
2021/11/15 07:31:04;;;;;;;21.13;11.90;;;17.60;57.60;;;;;;5066496;28;20439;-83
2021/11/15 07:33:32;;;;;;;19.03;10.70;;;17.60;57.60;;;;;;5067888;28;20500;-83
2021/11/15 07:36:00;;;;;;;22.90;11.87;;;17.50;57.50;;;;;;5067464;28;20458;-83
2021/11/15 07:38:29;;;;;;;22.43;11.70;;;17.60;57.60;;;;;;5067169;28;20442;-83
2021/11/15 07:40:56;;;;;;;22.93;11.70;;;17.50;57.50;;;;;;5067529;28;20442;-83
2021/11/15 07:43:25;;;;;;;22.23;11.63;;;17.60;57.70;;;;;;5067607;28;20485;-83
2021/11/15 07:45:54;;;;;;;21.63;11.33;;;17.50;57.60;;;;;;5068082;28;20442;-83
2021/11/15 07:48:22;;;;;;;22.23;12.10;;;17.50;57.60;;;;;;5067738;28;20458;-83
2021/11/15 07:50:50;;;;;;;21.83;11.73;;;17.50;57.60;;;;;;5067174;28;20453;-83
2021/11/15 07:53:19;;;;;;;18.70;11.10;;;17.50;57.60;;;;;;5067388;28;20513;-83
2021/11/15 07:55:46;;;;;;;19.70;11.87;;;17.50;57.70;;;;;;5067306;28;20443;-83
2021/11/15 07:58:16;;;;;;;22.03;11.53;;;17.50;57.60;;;;;;5067320;28;20419;-83
2021/11/15 08:00:44;;;;;;;19.67;11.50;;;17.50;57.50;;;;;;5067510;28;20442;-83
2021/11/15 08:03:13;;;;;;;20.77;11.63;;;17.50;57.60;;;;;;5066771;28;20443;-83
2021/11/15 08:05:42;;;;;;;24.97;12.50;;;17.50;57.60;;;;;;5067961;28;20439;-83
2021/11/15 08:08:10;;;;;;;21.43;11.67;;;17.50;58.20;;;;;;5067833;28;20442;-83
2021/11/15 08:10:38;;;;;;;20.20;11.23;;;17.50;57.60;;;;;;5067854;28;20442;-83
2021/11/15 08:13:07;;;;;;;20.23;11.90;;;17.50;57.60;;;;;;5068506;28;20498;-83
2021/11/15 08:15:34;;;;;;;17.80;10.47;;;17.50;57.60;;;;;;5069048;28;20453;-83
2021/11/15 08:18:05;;;;;;;17.60;11.00;;;17.60;57.60;;;;;;5067430;28;20942;-83
2021/11/15 08:20:37;;;;;;;20.37;10.90;;;17.60;57.60;;;;;;5069101;28;20435;-83
2021/11/15 08:23:06;;;;;;;23.03;11.83;;;17.60;57.60;;;;;;5068943;28;20462;-83
2021/11/15 08:25:58;;;;;;;19.17;11.17;;;17.60;57.60;;;;;;5068756;28;20451;-83
2021/11/15 08:28:26;;;;;;;22.17;12.30;;;17.50;57.30;;;;;;5068467;28;20427;-83
2021/11/15 08:30:55;;;;;;;18.73;10.93;;;17.50;57.40;;;;;;5066249;28;20457;-83
2021/11/15 08:33:23;;;;;;;20.33;11.27;;;17.50;57.50;;;;;;5066215;28;20501;-83
2021/11/15 08:35:52;;;;;;;20.17;10.67;;;17.50;57.50;;;;;;5060400;28;20462;-83
2021/11/15 08:38:41;;;;;;;18.87;11.33;;;17.50;57.60;;;;;;5059464;28;20427;-83
2021/11/15 08:41:09;;;;;;;20.70;12.00;;;17.60;57.70;;;;;;5059170;28;20558;-83
2021/11/15 08:43:37;;;;;;;16.57;10.40;;;17.50;57.60;;;;;;5059495;28;20470;-83
2021/11/15 08:46:07;;;;;;;21.57;12.00;;;17.50;57.60;;;;;;5058349;28;20925;-82
2021/11/15 08:48:35;;;;;;;21.23;11.40;;;17.60;57.50;;;;;;5057475;28;20541;-82
2021/11/15 08:51:07;;;;;;;20.70;11.57;;;17.60;57.70;;;;;;5057285;28;20477;-82
2021/11/15 08:53:35;;;;;;;18.87;10.73;;;17.50;57.60;;;;;;5056710;28;20517;-82
2021/11/15 08:56:03;;;;;;;21.07;11.63;;;17.60;57.50;;;;;;5057275;28;20534;-82
2021/11/15 08:58:31;;;;;;;22.87;12.70;;;17.50;57.50;;;;;;5057277;28;20477;-82
2021/11/15 09:00:59;;;;;;;21.37;12.17;;;17.50;57.60;;;;;;5057512;28;20550;-82
2021/11/15 09:03:27;;;;;;;21.37;12.37;;;17.60;57.60;;;;;;5057490;28;20455;-82
2021/11/15 09:05:55;;;;;;;19.90;12.10;;;17.50;57.50;;;;;;5056765;28;20517;-82
2021/11/15 09:08:24;;;;;;;20.90;11.07;;;17.60;57.60;;;;;;5057296;28;20450;-82
2021/11/15 09:10:52;;;;;;;18.50;11.10;;;17.60;58.10;;;;;;5062401;28;20490;-82
2021/11/15 09:13:20;;;;;;;21.37;12.67;;;17.60;57.40;;;;;;5066784;28;20478;-82
2021/11/15 09:15:48;;;;;;;21.40;12.23;;;17.60;57.50;;;;;;5066764;28;20427;-82
2021/11/15 09:18:16;;;;;;;25.83;12.43;;;17.50;57.40;;;;;;5067138;28;20461;-83
2021/11/15 09:20:44;;;;;;;23.37;12.60;;;17.50;57.50;;;;;;5067132;28;20460;-82
2021/11/15 09:23:12;;;;;;;21.57;12.00;;;17.50;57.50;;;;;;5066849;28;20458;-82
2021/11/15 09:25:42;;;;;;;18.90;11.37;;;17.50;57.50;;;;;;5067017;28;20435;-83
2021/11/15 09:28:10;;;;;;;20.67;12.07;;;17.60;57.40;;;;;;5066538;28;20442;-83
2021/11/15 09:30:39;;;;;;;21.70;12.20;;;17.60;57.50;;;;;;5065984;28;20446;-82
2021/11/15 09:33:07;;;;;;;22.57;12.03;;;17.50;57.50;;;;;;5069577;28;20474;-83
2021/11/15 09:35:36;;;;;;;20.60;11.30;;;17.60;57.50;;;;;;5070903;28;20446;-82
2021/11/15 09:38:04;;;;;;;22.47;11.47;;;17.50;57.50;;;;;;5070762;28;20430;-82
2021/11/15 09:40:33;;;;;;;22.67;12.43;;;17.50;57.50;;;;;;5071231;28;20471;-82
2021/11/15 09:43:03;;;;;;;21.20;11.20;;;17.50;57.40;;;;;;5070323;28;20470;-82
2021/11/15 09:45:31;;;;;;;23.13;12.40;;;17.60;57.60;;;;;;5070998;28;20434;-83
2021/11/15 09:47:59;;;;;;;23.00;12.63;;;17.60;57.50;;;;;;5071312;28;20448;-82
2021/11/15 09:50:27;;;;;;;25.93;12.80;;;17.60;57.50;;;;;;5070546;28;20430;-83
2021/11/15 09:52:55;;;;;;;25.73;12.90;;;17.60;57.40;;;;;;5070220;28;20470;-83
2021/11/15 09:55:23;;;;;;;21.20;12.17;;;17.60;57.40;;;;;;5069971;28;20461;-83
2021/11/15 09:57:51;;;;;;;23.87;12.83;;;17.50;57.30;;;;;;5070728;28;20446;-83
2021/11/15 10:00:22;;;;;;;23.70;12.90;;;17.50;57.40;;;;;;5070452;28;20442;-83
2021/11/15 10:02:51;;;;;;;23.20;12.30;;;17.60;57.40;;;;;;5070772;28;20435;-83
2021/11/15 10:05:19;;;;;;;20.00;12.00;;;17.60;57.30;;;;;;5069739;28;20430;-83
2021/11/15 10:07:48;;;;;;;23.87;13.17;;;17.60;57.40;;;;;;5070639;28;20473;-82
2021/11/15 10:10:34;;;;;;;22.60;12.73;;;17.60;57.40;;;;;;5070486;28;20430;-83
2021/11/15 10:13:14;;;;;;;20.23;11.80;;;17.60;57.40;;;;;;5070588;28;20477;-83
2021/11/15 10:16:00;;;;;;;22.00;11.67;;;17.60;57.40;;;;;;5070017;28;20438;-82
2021/11/15 10:18:36;;;;;;;24.20;13.00;;;17.60;57.40;;;;;;5065614;28;20422;-83
2021/11/15 10:21:06;;;;;;;26.80;13.43;;;17.60;57.40;;;;;;5061134;28;20487;-83
2021/11/15 10:23:38;;;;;;;24.40;13.60;;;17.60;57.40;;;;;;5061217;28;20439;-83
2021/11/15 10:26:12;;;;;;;23.37;12.47;;;17.60;57.40;;;;;;5061038;28;20495;-83
2021/11/15 10:28:40;;;;;;;24.63;13.50;;;17.60;57.40;;;;;;5061739;28;20441;-83
2021/11/15 10:31:30;;;;;;;24.50;13.53;;;17.60;57.40;;;;;;5060317;28;20466;-83
2021/11/15 10:33:59;;;;;;;22.77;12.53;;;17.60;57.40;;;;;;5060704;28;20542;-83
2021/11/15 10:36:49;;;;;;;23.77;13.43;;;17.60;57.30;;;;;;5060801;28;20427;-83
2021/11/15 10:39:18;;;;;;;23.33;12.57;;;17.60;57.40;;;;;;5060490;28;20430;-83
2021/11/15 10:41:56;;;;;;;23.80;13.40;;;17.60;57.30;;;;;;5060650;28;20430;-83
2021/11/15 10:44:25;;;;;;;24.53;13.77;;;17.60;57.30;;;;;;5060205;28;20438;-82
2021/11/15 10:46:55;;;;;;;24.50;12.80;;;17.60;57.30;;;;;;5059166;28;20423;-82
2021/11/15 10:49:23;;;;;;;23.27;13.37;;;17.60;57.20;;;;;;5059693;28;20431;-82
2021/11/15 10:51:53;;;;;;;24.77;12.93;;;17.60;57.20;;;;;;5059563;28;20461;-82
2021/11/15 10:54:45;;;;;;;29.33;14.37;;;17.60;57.20;;;;;;5059943;28;20478;-82
2021/11/15 10:57:32;;;;;;;23.70;13.63;;;17.60;57.30;;;;;;5059832;28;20449;-82
2021/11/15 11:00:37;;;;;;;23.93;13.07;;;17.60;57.20;;;;;;5059902;28;20458;-83
2021/11/15 11:03:19;;;;;;;28.70;14.40;;;17.60;57.30;;;;;;5060311;28;20446;-83
2021/11/15 11:05:48;;;;;;;26.20;14.20;;;17.60;57.40;;;;;;5059974;28;20529;-83
2021/11/15 11:08:18;;;;;;;26.57;14.60;;;17.50;57.30;;;;;;5060147;28;20430;-83
2021/11/15 11:10:56;;;;;;;25.27;13.60;;;17.50;57.30;;;;;;5059522;28;20918;-83
2021/11/15 11:13:26;;;;;;;26.37;14.23;;;17.60;57.30;;;;;;5060194;28;20504;-83
2021/11/15 11:15:55;;;;;;;24.17;13.90;;;17.60;57.30;;;;;;5060296;28;20513;-83
2021/11/15 11:18:33;;;;;;;25.20;14.13;;;17.60;57.10;;;;;;5059864;28;20504;-83
2021/11/15 11:21:26;;;;;;;26.73;14.73;;;17.60;57.30;;;;;;5059185;28;20462;-82
2021/11/15 11:24:20;;;;;;;27.30;13.70;;;17.60;57.20;;;;;;5059091;28;20546;-82
2021/11/15 11:26:50;;;;;;;26.63;15.53;;;17.60;57.20;;;;;;5059115;28;20504;-82
2021/11/15 11:29:20;;;;;;;27.50;14.43;;;17.50;57.00;;;;;;5059445;28;20473;-82
2021/11/15 11:31:49;;;;;;;27.20;14.70;;;17.60;57.20;;;;;;5059535;28;20502;-82
2021/11/15 11:34:19;;;;;;;22.80;13.23;;;17.60;57.10;;;;;;5058491;28;20492;-82
2021/11/15 11:36:47;;;;;;;28.60;14.90;;;17.60;57.20;;;;;;5059071;28;20476;-82
2021/11/15 11:39:17;;;;;;;27.53;14.87;;;17.60;57.20;;;;;;5058500;28;20522;-82
2021/11/15 11:41:47;;;;;;;25.83;14.27;;;17.50;57.00;;;;;;5058984;28;20500;-82
2021/11/15 11:44:15;;;;;;;30.70;15.90;;;17.50;57.20;;;;;;5058915;28;20497;-82
2021/11/15 11:46:43;;;;;;;30.00;15.43;;;17.60;57.20;;;;;;5058505;28;20437;-82
2021/11/15 11:49:12;;;;;;;27.53;14.57;;;17.60;57.10;;;;;;5058081;28;20576;-82
2021/11/15 11:51:42;;;;;;;27.30;14.70;;;17.50;57.10;;;;;;5059944;28;20562;-83
2021/11/15 11:54:13;;;;;;;25.70;14.40;;;17.60;57.20;;;;;;5064954;28;20493;-83
2021/11/15 11:56:41;;;;;;;33.00;16.00;;;17.60;57.20;;;;;;5060799;28;20491;-83
2021/11/15 11:59:11;;;;;;;29.20;15.43;;;17.60;57.20;;;;;;5059201;28;20534;-83
2021/11/15 12:01:39;;;;;;;26.57;13.67;;;17.60;57.20;;;;;;5059234;28;20473;-83
2021/11/15 12:04:10;;;;;;;25.43;13.83;;;17.50;57.10;;;;;;5059204;28;20549;-83
2021/11/15 12:06:39;;;;;;;27.23;15.20;;;17.50;57.10;;;;;;5058982;28;20461;-82
2021/11/15 12:09:08;;;;;;;30.50;15.80;;;17.60;57.20;;;;;;5057956;28;20533;-83
2021/11/15 12:11:38;;;;;;;26.40;15.17;;;17.60;57.20;;;;;;5059186;28;20471;-83
2021/11/15 12:14:07;;;;;;;28.57;15.00;;;17.60;57.20;;;;;;5063742;28;20534;-83
2021/11/15 12:17:00;;;;;;;27.80;14.30;;;17.50;57.10;;;;;;5068189;28;20441;-82
2021/11/15 12:20:11;;;;;;;24.23;14.13;;;17.60;57.10;;;;;;5064031;28;20454;-82
2021/11/15 12:22:54;;;;;;;26.97;14.20;;;17.60;57.10;;;;;;5058491;28;20506;-82
2021/11/15 12:25:26;;;;;;;27.63;15.23;;;17.50;57.00;;;;;;5057614;28;20462;-82
2021/11/15 12:27:56;;;;;;;32.13;15.53;;;17.50;57.10;;;;;;5057982;28;20478;-82
2021/11/15 12:30:26;;;;;;;27.73;15.23;;;17.50;57.20;;;;;;5058325;28;20481;-82
2021/11/15 12:33:22;;;;;;;23.00;13.97;;;17.50;57.00;;;;;;5057827;28;20518;-82
2021/11/15 12:35:52;;;;;;;30.17;15.23;;;17.60;57.20;;;;;;5057858;28;20488;-82
2021/11/15 12:38:45;;;;;;;27.30;15.23;;;17.50;57.10;;;;;;5057764;28;20789;-82
2021/11/15 12:41:34;;;;;;;30.27;16.13;;;17.50;57.10;;;;;;5055423;28;20435;-82
2021/11/15 12:44:20;;;;;;;25.73;14.40;;;17.50;57.20;;;;;;5057621;28;20534;-82